Luc Aube

Luc Aube

Statistiques 2026

  • Courses courues : 5
  • Nb de victoires : -
  • Nb de places : -
  • Écart gagnant : 14
  • Réussite à la gagne : -
  • Réussite à la place : -
Musique : Da 4a 6a 0a 9a (25) 0a Aa Aa 9a 0a 4a Da Da 7a 5a 1a 0a 3a
DateRangCatégorieAlloc.Dist.HippodromeChevalRed. KmSpé.
17/05/09 5 Mixte 10 000€ 2 725m Meral Quelly Moulvent Attelé
10/05/09 0 Trot 10 000€ 2 850m Durtal Rekomo Mag Attelé
10/05/09 D Trot 20 000€ 2 675m Alencon Prince Moulvent Attelé
10/05/09 6 Trot 11 000€ 2 825m Durtal Quenza de Beauval Attelé
09/05/09 2 Trot 13 000€ 2 725m Lisieux Quelle Sexy 1'18"8 Attelé
09/05/09 9 Trot 56 000€ 2 875m Vincennes Maestro de Neuvy 1'14"8 Attelé lire

N'a jamais été en mesure de jouer le moindre rôle actif.

03/05/09 7 Trot 10 000€ 2 550m Gournay En Bray Quenza de Beauval Attelé
03/05/09 0 Trot 11 000€ 2 675m Alencon Rodosio Attelé
02/05/09 D Trot 14 000€ 2 725m Lisieux Quenotte du Maine Attelé
01/05/09 1 Mixte 11 000€ 2 800m Tours Quelle Sexy Attelé
01/05/09 6 Mixte 11 000€ 2 800m Tours Quelly Moulvent Attelé
30/04/09 5 Trot 20 000€ 2 675m Le Mont Saint Michel Rosalina 1'19"2 Attelé lire

Longtemps en retrait, a su gagner du terrain pour finir.

26/04/09 D Trot 10 000€ 3 000m Neuille Pont Pierre Resine Somolli Attelé
20/04/09 4 Mixte 9 000€ 2 225m Meral Spot d'Arsa Attelé
19/04/09 8 Trot 35 000€ 2 825m Chartres Maestro de Neuvy 1'16"2 Attelé lire

Jamais très loin dans le parcours, a marqué le pas pour finir.

19/04/09 5 Trot 9 000€ 2 675m Alencon Space Cowboys Attelé
13/04/09 6 Mixte 11 000€ 2 750m Ecommoy Rodosio Attelé
12/04/09 3 Trot 14 000€ 2 750m Ecommoy Quenotte du Maine Attelé
12/04/09 0 Trot 13 000€ 2 800m Rambouillet Quenza de Beauval Attelé
05/04/09 1 Mixte 10 000€ 2 850m Meslay Du Maine Rosalina 1'19"0 Attelé
29/03/09 4 Mixte 15 000€ Durtal Prince Moulvent Cross
29/03/09 3 Mixte 10 000€ 2 825m Durtal Rodosio Attelé
22/03/09 2 Trot 13 000€ 2 625m Cherbourg Quenotte du Maine 1'18"3 Attelé
22/03/09 7 Trot 12 000€ 2 625m Cherbourg Spot d'Arsa 1'20"8 Attelé
15/03/09 7 Mixte 11 000€ 3 250m Saumur Quelle Sexy Attelé
09/03/09 4 Trot 11 000€ 2 400m Chateaubriant Spot d'Arsa 1'20"6 Attelé
08/03/09 2 Trot 12 000€ 2 800m Chartres Quenotte du Maine 1'19"2 Attelé
08/03/09 5 Mixte 9 000€ 2 725m Seiches Sur Le Loir Rodosio Attelé
02/03/09 D Trot 20 000€ 2 450m Caen Riana du Coudray Monté lire

A été rapidement sanctionné.

01/03/09 0 Trot 11 000€ 2 625m Cherbourg Rusulia Attelé
01/03/09 6 Mixte 11 000€ 2 825m Cholet Rosalina 1'22"1 Attelé
15/02/09 7 Trot 12 000€ 2 225m Laval Spot d'Arsa 1'19"4 Attelé
15/02/09 8 Trot 13 000€ 2 875m Laval Quenotte du Maine 1'19"1 Attelé
08/02/09 7 Mixte 10 000€ 2 675m Challans Rodosio Attelé
26/01/09 9 Trot 11 000€ 2 400m Chateaubriant Rodosio 1'21"2 Attelé
04/01/09 D Trot 12 000€ 2 275m Nantes Rodosio Attelé
14/12/08 D Trot 12 000€ 2 050m Cabourg Spot d'Arsa Attelé
08/12/08 3 Trot 13 000€ 3 000m Nantes Quelle Sexy 1'19"0 Attelé
08/12/08 6 Trot 13 000€ 3 025m Nantes Quenotte du Maine 1'18"6 Attelé
07/12/08 0 Trot 24 000€ 2 875m Laval Lurano Attelé
01/12/08 D Trot 11 000€ 2 400m Chateaubriant Quelly Moulvent Attelé
17/11/08 2 Trot 9 000€ 2 800m Vire Quelle Sexy 1'20"2 Attelé
14/11/08 0 Trot 28 000€ 2 875m Maure De Bretagne Lurano Attelé lire

Rapidement dans le groupe de tête, a cédé pour finir.

10/11/08 0 Trot 11 000€ 2 200m Pontchateau Rosalina Attelé
09/11/08 D Trot 14 000€ 2 875m Laval Quinou Dim Attelé
09/11/08 2 Trot 14 000€ 2 875m Laval Quenotte du Maine 1'18"2 Attelé
08/11/08 7 Trot 9 000€ 2 875m Cabourg Quelly Moulvent 1'20"9 Attelé
08/11/08 7 Trot 9 000€ 2 850m Cabourg Qualine Moulvent 1'20"9 Attelé
02/11/08 0 Mixte 16 000€ 2 850m Durtal Lurano Attelé
01/11/08 0 Trot 13 000€ 2 625m Cherbourg Quadrera Mag Attelé